Spring Lake, Minnesota
Current Conditions -  °F | °C
As of 10:53 PM on Thursday 30 Oct 2014 (Local Time) from KFOZ Reporting Station
Light Snow Light Snow  
Wind Chill: 21°   Ceiling: 4100
Heat Index: 28°   Visibility: 10mi
Dew Point: 19°   Wind: 7mph
Humidity: 69%   Direction: 350°N
Pressure: 30.42"   Gusts: NA
Location:  47.64°N, 93.87°W
Report Text: KFOZ 310353Z AUTO 35006KT 10SM -SN SCT031 OVC041 M02/M07 A3042 RMK AO2
Loading
Personal Weather Stations






























Interactive Weather Map
Tropical Storm Tracking
New forecast layout! Learn more

10-Day Weather Forecast

Advertisements
Track Severe Weather on mobile